sensor_id;sensor_type;location;lat;lon;timestamp;temperature;humidity
23591;DHT22;11973;52.098;7.582;2022-12-20T00:02:15;8.50;99.90
23591;DHT22;11973;52.098;7.582;2022-12-20T00:04:41;8.50;99.90
23591;DHT22;11973;52.098;7.582;2022-12-20T00:07:07;8.50;99.90
23591;DHT22;11973;52.098;7.582;2022-12-20T00:09:32;8.50;99.90
23591;DHT22;11973;52.098;7.582;2022-12-20T00:11:58;8.60;99.90
23591;DHT22;11973;52.098;7.582;2022-12-20T00:14:24;8.60;99.90
23591;DHT22;11973;52.098;7.582;2022-12-20T00:16:49;8.70;99.90
23591;DHT22;11973;52.098;7.582;2022-12-20T00:19:15;8.70;99.90
23591;DHT22;11973;52.098;7.582;2022-12-20T00:21:41;8.80;99.90
23591;DHT22;11973;52.098;7.582;2022-12-20T00:24:07;8.70;99.90
23591;DHT22;11973;52.098;7.582;2022-12-20T00:26:33;8.80;99.90
23591;DHT22;11973;52.098;7.582;2022-12-20T00:29:00;8.80;99.90
23591;DHT22;11973;52.098;7.582;2022-12-20T00:31:28;8.90;99.90
23591;DHT22;11973;52.098;7.582;2022-12-20T00:33:55;9.00;99.90
23591;DHT22;11973;52.098;7.582;2022-12-20T00:36:22;9.00;99.90
23591;DHT22;11973;52.098;7.582;2022-12-20T00:38:51;8.90;99.90
23591;DHT22;11973;52.098;7.582;2022-12-20T00:41:25;9.00;99.90
23591;DHT22;11973;52.098;7.582;2022-12-20T00:43:51;9.00;99.90
23591;DHT22;11973;52.098;7.582;2022-12-20T00:46:18;9.20;99.90
23591;DHT22;11973;52.098;7.582;2022-12-20T00:48:45;9.00;99.90
23591;DHT22;11973;52.098;7.582;2022-12-20T00:51:16;8.90;99.90
23591;DHT22;11973;52.098;7.582;2022-12-20T00:53:44;9.00;99.90
23591;DHT22;11973;52.098;7.582;2022-12-20T00:56:11;8.90;99.90
23591;DHT22;11973;52.098;7.582;2022-12-20T00:58:39;8.90;99.90
23591;DHT22;11973;52.098;7.582;2022-12-20T01:01:20;8.90;99.90
23591;DHT22;11973;52.098;7.582;2022-12-20T01:03:47;8.90;99.90
23591;DHT22;11973;52.098;7.582;2022-12-20T01:06:13;8.90;99.90
23591;DHT22;11973;52.098;7.582;2022-12-20T01:08:39;8.90;99.90
23591;DHT22;11973;52.098;7.582;2022-12-20T01:13:39;8.90;99.90
23591;DHT22;11973;52.098;7.582;2022-12-20T01:16:07;8.90;99.90
23591;DHT22;11973;52.098;7.582;2022-12-20T01:18:34;8.90;99.90
23591;DHT22;11973;52.098;7.582;2022-12-20T01:21:06;8.80;99.90
23591;DHT22;11973;52.098;7.582;2022-12-20T01:23:32;8.80;99.90
23591;DHT22;11973;52.098;7.582;2022-12-20T01:25:59;8.80;99.90
23591;DHT22;11973;52.098;7.582;2022-12-20T01:28:26;8.80;99.90
23591;DHT22;11973;52.098;7.582;2022-12-20T01:30:52;8.80;99.90
23591;DHT22;11973;52.098;7.582;2022-12-20T01:33:18;8.80;99.90
23591;DHT22;11973;52.098;7.582;2022-12-20T01:35:55;8.80;99.90
23591;DHT22;11973;52.098;7.582;2022-12-20T01:38:21;8.90;99.90
23591;DHT22;11973;52.098;7.582;2022-12-20T01:40:46;8.90;99.90
23591;DHT22;11973;52.098;7.582;2022-12-20T01:43:14;9.10;99.90
23591;DHT22;11973;52.098;7.582;2022-12-20T01:45:40;8.90;99.90
23591;DHT22;11973;52.098;7.582;2022-12-20T01:48:06;9.00;99.90
23591;DHT22;11973;52.098;7.582;2022-12-20T01:50:33;9.00;99.90
23591;DHT22;11973;52.098;7.582;2022-12-20T01:53:00;9.10;99.90
23591;DHT22;11973;52.098;7.582;2022-12-20T01:55:29;9.10;99.90
23591;DHT22;11973;52.098;7.582;2022-12-20T01:58:04;9.10;99.90
23591;DHT22;11973;52.098;7.582;2022-12-20T02:00:30;9.20;99.90
23591;DHT22;11973;52.098;7.582;2022-12-20T02:03:03;9.20;99.90
23591;DHT22;11973;52.098;7.582;2022-12-20T02:05:35;9.20;99.90
23591;DHT22;11973;52.098;7.582;2022-12-20T02:08:02;9.20;99.90
23591;DHT22;11973;52.098;7.582;2022-12-20T02:16:34;9.30;99.90
23591;DHT22;11973;52.098;7.582;2022-12-20T02:22:45;9.30;99.90
23591;DHT22;11973;52.098;7.582;2022-12-20T02:30:38;9.50;99.90
23591;DHT22;11973;52.098;7.582;2022-12-20T02:33:10;9.40;99.90
23591;DHT22;11973;52.098;7.582;2022-12-20T02:35:38;9.50;99.90
23591;DHT22;11973;52.098;7.582;2022-12-20T02:38:30;9.50;99.90
23591;DHT22;11973;52.098;7.582;2022-12-20T02:41:14;9.50;99.90
23591;DHT22;11973;52.098;7.582;2022-12-20T02:43:45;9.50;99.90
23591;DHT22;11973;52.098;7.582;2022-12-20T02:46:31;9.60;99.90
23591;DHT22;11973;52.098;7.582;2022-12-20T02:49:01;9.60;99.90
23591;DHT22;11973;52.098;7.582;2022-12-20T02:51:28;9.60;99.90
23591;DHT22;11973;52.098;7.582;2022-12-20T02:53:57;9.80;99.90
23591;DHT22;11973;52.098;7.582;2022-12-20T02:58:54;9.60;99.90
23591;DHT22;11973;52.098;7.582;2022-12-20T03:01:32;9.60;99.90
23591;DHT22;11973;52.098;7.582;2022-12-20T03:04:00;9.70;99.90
23591;DHT22;11973;52.098;7.582;2022-12-20T03:06:26;9.70;99.90
23591;DHT22;11973;52.098;7.582;2022-12-20T03:08:52;9.70;99.90
23591;DHT22;11973;52.098;7.582;2022-12-20T03:11:21;9.90;99.90
23591;DHT22;11973;52.098;7.582;2022-12-20T03:13:47;9.70;99.90
23591;DHT22;11973;52.098;7.582;2022-12-20T03:16:13;9.70;99.90
23591;DHT22;11973;52.098;7.582;2022-12-20T03:18:39;9.80;99.90
23591;DHT22;11973;52.098;7.582;2022-12-20T03:21:04;9.70;99.90
23591;DHT22;11973;52.098;7.582;2022-12-20T03:23:30;9.70;99.90
23591;DHT22;11973;52.098;7.582;2022-12-20T03:25:57;9.70;99.90
23591;DHT22;11973;52.098;7.582;2022-12-20T03:28:45;9.70;99.90
23591;DHT22;11973;52.098;7.582;2022-12-20T03:31:15;9.70;99.90
23591;DHT22;11973;52.098;7.582;2022-12-20T03:33:46;9.70;99.90
23591;DHT22;11973;52.098;7.582;2022-12-20T03:36:12;9.70;99.90
23591;DHT22;11973;52.098;7.582;2022-12-20T03:38:38;9.70;99.90
23591;DHT22;11973;52.098;7.582;2022-12-20T03:41:06;9.70;99.90
23591;DHT22;11973;52.098;7.582;2022-12-20T03:43:32;9.60;99.90
23591;DHT22;11973;52.098;7.582;2022-12-20T03:45:58;9.60;99.90
23591;DHT22;11973;52.098;7.582;2022-12-20T03:48:26;9.60;99.90
23591;DHT22;11973;52.098;7.582;2022-12-20T03:50:52;9.60;99.90
23591;DHT22;11973;52.098;7.582;2022-12-20T03:53:17;9.60;99.90
23591;DHT22;11973;52.098;7.582;2022-12-20T03:55:44;9.60;99.90
23591;DHT22;11973;52.098;7.582;2022-12-20T03:58:12;9.60;99.90
23591;DHT22;11973;52.098;7.582;2022-12-20T04:00:38;9.60;99.90
23591;DHT22;11973;52.098;7.582;2022-12-20T04:03:22;9.60;99.90
23591;DHT22;11973;52.098;7.582;2022-12-20T04:05:48;9.60;99.90
23591;DHT22;11973;52.098;7.582;2022-12-20T04:08:14;9.60;99.90
23591;DHT22;11973;52.098;7.582;2022-12-20T04:10:40;9.60;99.90
23591;DHT22;11973;52.098;7.582;2022-12-20T04:13:28;9.60;99.90
23591;DHT22;11973;52.098;7.582;2022-12-20T04:15:55;9.60;99.90
23591;DHT22;11973;52.098;7.582;2022-12-20T04:18:23;9.60;99.90
23591;DHT22;11973;52.098;7.582;2022-12-20T04:20:53;9.60;99.90
23591;DHT22;11973;52.098;7.582;2022-12-20T04:23:24;9.60;99.90
23591;DHT22;11973;52.098;7.582;2022-12-20T04:25:50;9.60;99.90
23591;DHT22;11973;52.098;7.582;2022-12-20T04:28:16;9.60;99.90
23591;DHT22;11973;52.098;7.582;2022-12-20T04:30:42;9.70;99.90
23591;DHT22;11973;52.098;7.582;2022-12-20T04:33:09;9.70;99.90
23591;DHT22;11973;52.098;7.582;2022-12-20T04:35:36;9.70;99.90
23591;DHT22;11973;52.098;7.582;2022-12-20T04:38:03;9.90;99.90
23591;DHT22;11973;52.098;7.582;2022-12-20T04:40:29;9.70;99.90
23591;DHT22;11973;52.098;7.582;2022-12-20T04:42:57;9.70;99.90
23591;DHT22;11973;52.098;7.582;2022-12-20T04:45:23;9.70;99.90
23591;DHT22;11973;52.098;7.582;2022-12-20T04:47:50;9.80;99.90
23591;DHT22;11973;52.098;7.582;2022-12-20T04:50:22;9.70;99.90
23591;DHT22;11973;52.098;7.582;2022-12-20T04:52:48;9.70;99.90
23591;DHT22;11973;52.098;7.582;2022-12-20T04:55:39;9.70;99.90
23591;DHT22;11973;52.098;7.582;2022-12-20T04:58:06;9.60;99.90
23591;DHT22;11973;52.098;7.582;2022-12-20T05:00:33;9.70;99.90
23591;DHT22;11973;52.098;7.582;2022-12-20T05:03:06;9.70;99.90
23591;DHT22;11973;52.098;7.582;2022-12-20T05:05:32;9.70;99.90
23591;DHT22;11973;52.098;7.582;2022-12-20T05:07:58;9.70;99.90
23591;DHT22;11973;52.098;7.582;2022-12-20T05:10:24;9.70;99.90
23591;DHT22;11973;52.098;7.582;2022-12-20T05:12:51;9.70;99.90
23591;DHT22;11973;52.098;7.582;2022-12-20T06:01:22;9.90;99.90
23591;DHT22;11973;52.098;7.582;2022-12-20T06:03:53;9.90;99.90
23591;DHT22;11973;52.098;7.582;2022-12-20T06:06:20;10.00;99.90
23591;DHT22;11973;52.098;7.582;2022-12-20T06:08:47;9.90;99.90
23591;DHT22;11973;52.098;7.582;2022-12-20T06:11:19;10.00;99.90
23591;DHT22;11973;52.098;7.582;2022-12-20T06:13:55;10.00;99.90
23591;DHT22;11973;52.098;7.582;2022-12-20T06:16:21;10.00;99.90
23591;DHT22;11973;52.098;7.582;2022-12-20T06:18:49;10.00;99.90
23591;DHT22;11973;52.098;7.582;2022-12-20T06:21:16;10.00;99.90
23591;DHT22;11973;52.098;7.582;2022-12-20T06:23:43;10.00;99.90
23591;DHT22;11973;52.098;7.582;2022-12-20T06:26:11;10.00;99.90
23591;DHT22;11973;52.098;7.582;2022-12-20T06:28:48;10.00;99.90
23591;DHT22;11973;52.098;7.582;2022-12-20T06:31:20;10.10;99.90
23591;DHT22;11973;52.098;7.582;2022-12-20T06:33:50;10.00;99.90
23591;DHT22;11973;52.098;7.582;2022-12-20T06:36:18;10.10;99.90
23591;DHT22;11973;52.098;7.582;2022-12-20T06:38:44;10.10;99.90
23591;DHT22;11973;52.098;7.582;2022-12-20T06:41:10;10.10;99.90
23591;DHT22;11973;52.098;7.582;2022-12-20T06:43:36;10.10;99.90
23591;DHT22;11973;52.098;7.582;2022-12-20T06:46:02;10.10;99.90
23591;DHT22;11973;52.098;7.582;2022-12-20T06:48:28;10.10;99.90
23591;DHT22;11973;52.098;7.582;2022-12-20T06:50:54;10.20;99.90
23591;DHT22;11973;52.098;7.582;2022-12-20T06:53:20;10.20;99.90
23591;DHT22;11973;52.098;7.582;2022-12-20T06:55:46;10.20;99.90
23591;DHT22;11973;52.098;7.582;2022-12-20T06:58:19;10.20;99.90
23591;DHT22;11973;52.098;7.582;2022-12-20T07:00:47;10.20;99.90
23591;DHT22;11973;52.098;7.582;2022-12-20T07:03:13;10.20;99.90
23591;DHT22;11973;52.098;7.582;2022-12-20T07:05:39;10.20;99.90
23591;DHT22;11973;52.098;7.582;2022-12-20T07:08:05;10.20;99.90
23591;DHT22;11973;52.098;7.582;2022-12-20T07:10:36;10.20;99.90
23591;DHT22;11973;52.098;7.582;2022-12-20T07:13:02;10.20;99.90
23591;DHT22;11973;52.098;7.582;2022-12-20T07:15:27;10.10;99.90
23591;DHT22;11973;52.098;7.582;2022-12-20T07:17:53;10.10;99.90
23591;DHT22;11973;52.098;7.582;2022-12-20T07:20:19;10.10;99.90
23591;DHT22;11973;52.098;7.582;2022-12-20T07:22:47;10.10;99.90
23591;DHT22;11973;52.098;7.582;2022-12-20T07:25:14;10.00;99.90
23591;DHT22;11973;52.098;7.582;2022-12-20T07:27:39;10.00;99.90
23591;DHT22;11973;52.098;7.582;2022-12-20T07:30:06;10.00;99.90
23591;DHT22;11973;52.098;7.582;2022-12-20T07:32:32;10.00;99.90
23591;DHT22;11973;52.098;7.582;2022-12-20T07:34:57;9.90;99.90
23591;DHT22;11973;52.098;7.582;2022-12-20T07:37:23;9.90;99.90
23591;DHT22;11973;52.098;7.582;2022-12-20T07:39:49;9.90;99.90
23591;DHT22;11973;52.098;7.582;2022-12-20T07:42:15;9.90;99.90
23591;DHT22;11973;52.098;7.582;2022-12-20T07:44:41;9.90;99.90
23591;DHT22;11973;52.098;7.582;2022-12-20T07:47:07;9.80;99.90
23591;DHT22;11973;52.098;7.582;2022-12-20T07:49:34;9.80;99.90
23591;DHT22;11973;52.098;7.582;2022-12-20T07:52:01;9.80;99.90
23591;DHT22;11973;52.098;7.582;2022-12-20T07:54:35;9.80;99.90
23591;DHT22;11973;52.098;7.582;2022-12-20T07:57:08;9.80;99.90
23591;DHT22;11973;52.098;7.582;2022-12-20T07:59:41;9.80;99.90
23591;DHT22;11973;52.098;7.582;2022-12-20T08:02:11;9.80;99.90
23591;DHT22;11973;52.098;7.582;2022-12-20T08:04:38;9.80;99.90
23591;DHT22;11973;52.098;7.582;2022-12-20T08:07:06;9.80;99.90
23591;DHT22;11973;52.098;7.582;2022-12-20T08:09:36;9.80;99.90
23591;DHT22;11973;52.098;7.582;2022-12-20T08:12:03;9.80;99.90
23591;DHT22;11973;52.098;7.582;2022-12-20T08:14:28;9.80;99.90
23591;DHT22;11973;52.098;7.582;2022-12-20T08:16:54;9.90;99.90
23591;DHT22;11973;52.098;7.582;2022-12-20T08:19:20;9.90;99.90
23591;DHT22;11973;52.098;7.582;2022-12-20T08:21:46;9.90;99.90
23591;DHT22;11973;52.098;7.582;2022-12-20T08:24:12;10.10;99.90
23591;DHT22;11973;52.098;7.582;2022-12-20T08:26:39;10.00;99.90
23591;DHT22;11973;52.098;7.582;2022-12-20T08:29:05;10.00;99.90
23591;DHT22;11973;52.098;7.582;2022-12-20T08:31:31;10.00;99.90
23591;DHT22;11973;52.098;7.582;2022-12-20T08:33:56;10.00;99.90
23591;DHT22;11973;52.098;7.582;2022-12-20T08:36:22;10.10;99.90
23591;DHT22;11973;52.098;7.582;2022-12-20T08:38:48;10.10;99.90
23591;DHT22;11973;52.098;7.582;2022-12-20T08:41:15;10.10;99.90
23591;DHT22;11973;52.098;7.582;2022-12-20T08:43:41;10.20;99.90
23591;DHT22;11973;52.098;7.582;2022-12-20T08:46:09;10.20;99.90
23591;DHT22;11973;52.098;7.582;2022-12-20T08:48:35;10.20;99.90
23591;DHT22;11973;52.098;7.582;2022-12-20T08:51:05;10.30;99.90
23591;DHT22;11973;52.098;7.582;2022-12-20T08:53:32;10.30;99.90
23591;DHT22;11973;52.098;7.582;2022-12-20T08:56:07;10.40;99.90
23591;DHT22;11973;52.098;7.582;2022-12-20T08:58:34;10.40;99.90
23591;DHT22;11973;52.098;7.582;2022-12-20T09:01:01;10.50;99.90
23591;DHT22;11973;52.098;7.582;2022-12-20T09:03:31;10.50;99.90
23591;DHT22;11973;52.098;7.582;2022-12-20T09:05:58;10.60;99.90
23591;DHT22;11973;52.098;7.582;2022-12-20T09:08:25;10.60;99.90
23591;DHT22;11973;52.098;7.582;2022-12-20T09:10:51;10.70;99.90
23591;DHT22;11973;52.098;7.582;2022-12-20T09:13:18;10.70;99.90
23591;DHT22;11973;52.098;7.582;2022-12-20T09:15:43;10.80;99.90
23591;DHT22;11973;52.098;7.582;2022-12-20T09:18:10;10.80;99.90
23591;DHT22;11973;52.098;7.582;2022-12-20T09:20:41;10.80;99.90
23591;DHT22;11973;52.098;7.582;2022-12-20T09:23:08;10.90;99.90
23591;DHT22;11973;52.098;7.582;2022-12-20T09:25:34;10.90;99.90
23591;DHT22;11973;52.098;7.582;2022-12-20T09:28:02;10.90;99.90
23591;DHT22;11973;52.098;7.582;2022-12-20T09:30:28;11.00;99.90
23591;DHT22;11973;52.098;7.582;2022-12-20T09:32:54;11.00;99.90
23591;DHT22;11973;52.098;7.582;2022-12-20T09:35:21;11.00;99.90
23591;DHT22;11973;52.098;7.582;2022-12-20T09:37:47;11.10;99.90
23591;DHT22;11973;52.098;7.582;2022-12-20T09:40:18;11.10;99.90
23591;DHT22;11973;52.098;7.582;2022-12-20T09:42:47;11.10;99.90
23591;DHT22;11973;52.098;7.582;2022-12-20T09:45:21;11.20;99.90
23591;DHT22;11973;52.098;7.582;2022-12-20T09:47:49;11.20;99.90
23591;DHT22;11973;52.098;7.582;2022-12-20T09:50:18;11.30;99.90
23591;DHT22;11973;52.098;7.582;2022-12-20T09:53:00;11.30;99.90
23591;DHT22;11973;52.098;7.582;2022-12-20T09:55:44;11.30;99.90
23591;DHT22;11973;52.098;7.582;2022-12-20T09:58:18;11.40;99.90
23591;DHT22;11973;52.098;7.582;2022-12-20T10:00:48;11.40;99.90
23591;DHT22;11973;52.098;7.582;2022-12-20T10:03:22;11.40;99.90
23591;DHT22;11973;52.098;7.582;2022-12-20T10:05:53;11.50;99.90
23591;DHT22;11973;52.098;7.582;2022-12-20T10:13:50;11.60;99.90
23591;DHT22;11973;52.098;7.582;2022-12-20T10:16:31;11.60;99.90
23591;DHT22;11973;52.098;7.582;2022-12-20T10:24:33;11.70;99.90
23591;DHT22;11973;52.098;7.582;2022-12-20T10:27:19;11.70;99.90
23591;DHT22;11973;52.098;7.582;2022-12-20T10:29:46;11.80;99.90
23591;DHT22;11973;52.098;7.582;2022-12-20T10:32:19;11.80;99.90
23591;DHT22;11973;52.098;7.582;2022-12-20T10:37:22;11.70;99.90
23591;DHT22;11973;52.098;7.582;2022-12-20T10:39:49;11.70;99.90
23591;DHT22;11973;52.098;7.582;2022-12-20T10:44:56;11.80;99.90
23591;DHT22;11973;52.098;7.582;2022-12-20T10:47:44;11.80;99.90
23591;DHT22;11973;52.098;7.582;2022-12-20T10:52:42;11.80;99.90
23591;DHT22;11973;52.098;7.582;2022-12-20T10:55:31;11.90;99.90
23591;DHT22;11973;52.098;7.582;2022-12-20T10:58:02;11.90;99.90
23591;DHT22;11973;52.098;7.582;2022-12-20T11:00:30;11.90;99.90
23591;DHT22;11973;52.098;7.582;2022-12-20T11:03:32;11.90;99.90
23591;DHT22;11973;52.098;7.582;2022-12-20T11:06:00;11.90;99.90
23591;DHT22;11973;52.098;7.582;2022-12-20T11:08:29;11.90;99.90
23591;DHT22;11973;52.098;7.582;2022-12-20T11:11:29;11.90;99.90
23591;DHT22;11973;52.098;7.582;2022-12-20T11:14:12;11.90;99.90
23591;DHT22;11973;52.098;7.582;2022-12-20T11:16:39;11.90;99.90
23591;DHT22;11973;52.098;7.582;2022-12-20T11:27:40;12.00;99.90
23591;DHT22;11973;52.098;7.582;2022-12-20T11:30:16;12.00;99.90
23591;DHT22;11973;52.098;7.582;2022-12-20T11:43:50;12.00;99.90
23591;DHT22;11973;52.098;7.582;2022-12-20T11:49:39;12.00;99.90
23591;DHT22;11973;52.098;7.582;2022-12-20T11:52:38;12.00;99.90
23591;DHT22;11973;52.098;7.582;2022-12-20T11:57:59;12.00;99.90
23591;DHT22;11973;52.098;7.582;2022-12-20T12:00:26;12.00;99.90
23591;DHT22;11973;52.098;7.582;2022-12-20T12:03:17;12.10;99.90
23591;DHT22;11973;52.098;7.582;2022-12-20T12:05:50;12.10;99.90
23591;DHT22;11973;52.098;7.582;2022-12-20T12:08:20;12.10;99.90
23591;DHT22;11973;52.098;7.582;2022-12-20T12:11:18;12.10;99.90
23591;DHT22;11973;52.098;7.582;2022-12-20T12:13:42;12.10;99.90
23591;DHT22;11973;52.098;7.582;2022-12-20T12:16:27;12.10;99.90
23591;DHT22;11973;52.098;7.582;2022-12-20T12:18:58;12.10;99.90
23591;DHT22;11973;52.098;7.582;2022-12-20T12:24:03;12.20;99.90
23591;DHT22;11973;52.098;7.582;2022-12-20T12:26:37;12.10;99.90
23591;DHT22;11973;52.098;7.582;2022-12-20T12:29:10;12.10;99.90
23591;DHT22;11973;52.098;7.582;2022-12-20T12:42:54;12.10;99.90
23591;DHT22;11973;52.098;7.582;2022-12-20T12:47:54;12.00;99.90
23591;DHT22;11973;52.098;7.582;2022-12-20T12:50:28;11.90;99.90
23591;DHT22;11973;52.098;7.582;2022-12-20T12:52:58;11.90;99.90
23591;DHT22;11973;52.098;7.582;2022-12-20T12:55:36;11.90;99.90
23591;DHT22;11973;52.098;7.582;2022-12-20T13:01:45;11.80;99.90
23591;DHT22;11973;52.098;7.582;2022-12-20T13:04:30;11.80;99.90
23591;DHT22;11973;52.098;7.582;2022-12-20T13:07:00;11.80;99.90
23591;DHT22;11973;52.098;7.582;2022-12-20T13:11:53;11.80;99.90
23591;DHT22;11973;52.098;7.582;2022-12-20T13:16:47;11.70;99.90
23591;DHT22;11973;52.098;7.582;2022-12-20T13:19:30;11.70;99.90
23591;DHT22;11973;52.098;7.582;2022-12-20T13:22:14;11.70;99.90
23591;DHT22;11973;52.098;7.582;2022-12-20T13:24:53;11.70;99.90
23591;DHT22;11973;52.098;7.582;2022-12-20T13:27:39;11.70;99.90
23591;DHT22;11973;52.098;7.582;2022-12-20T13:38:53;11.80;99.90
23591;DHT22;11973;52.098;7.582;2022-12-20T13:43:51;11.80;99.90
23591;DHT22;11973;52.098;7.582;2022-12-20T13:46:26;11.80;99.90
23591;DHT22;11973;52.098;7.582;2022-12-20T13:48:58;11.80;99.90
23591;DHT22;11973;52.098;7.582;2022-12-20T13:51:28;11.80;99.90
23591;DHT22;11973;52.098;7.582;2022-12-20T13:54:02;11.80;99.90
23591;DHT22;11973;52.098;7.582;2022-12-20T13:56:43;11.80;99.90
23591;DHT22;11973;52.098;7.582;2022-12-20T13:59:31;11.80;99.90
23591;DHT22;11973;52.098;7.582;2022-12-20T14:02:01;11.80;99.90
23591;DHT22;11973;52.098;7.582;2022-12-20T14:04:43;11.80;99.90
23591;DHT22;11973;52.098;7.582;2022-12-20T14:07:15;11.80;99.90
23591;DHT22;11973;52.098;7.582;2022-12-20T14:09:47;11.70;99.90
23591;DHT22;11973;52.098;7.582;2022-12-20T14:12:19;11.70;99.90
23591;DHT22;11973;52.098;7.582;2022-12-20T14:14:46;11.70;99.90
23591;DHT22;11973;52.098;7.582;2022-12-20T14:17:24;11.70;99.90
23591;DHT22;11973;52.098;7.582;2022-12-20T14:20:06;11.70;99.90
23591;DHT22;11973;52.098;7.582;2022-12-20T14:23:01;11.70;99.90
23591;DHT22;11973;52.098;7.582;2022-12-20T14:25:35;11.60;99.90
23591;DHT22;11973;52.098;7.582;2022-12-20T14:28:02;11.60;99.90
23591;DHT22;11973;52.098;7.582;2022-12-20T14:30:35;11.60;99.90
23591;DHT22;11973;52.098;7.582;2022-12-20T14:33:17;11.60;99.90
23591;DHT22;11973;52.098;7.582;2022-12-20T14:35:47;11.60;99.90
23591;DHT22;11973;52.098;7.582;2022-12-20T14:38:23;11.60;99.90
23591;DHT22;11973;52.098;7.582;2022-12-20T14:40:53;11.60;99.90
23591;DHT22;11973;52.098;7.582;2022-12-20T14:43:26;11.50;99.90
23591;DHT22;11973;52.098;7.582;2022-12-20T14:46:14;11.50;99.90
23591;DHT22;11973;52.098;7.582;2022-12-20T14:48:41;11.50;99.90
23591;DHT22;11973;52.098;7.582;2022-12-20T14:51:07;11.50;99.90
23591;DHT22;11973;52.098;7.582;2022-12-20T14:53:33;11.50;99.90
23591;DHT22;11973;52.098;7.582;2022-12-20T14:55:59;11.50;99.90
23591;DHT22;11973;52.098;7.582;2022-12-20T14:58:27;11.50;99.90
23591;DHT22;11973;52.098;7.582;2022-12-20T15:03:28;11.40;99.90
23591;DHT22;11973;52.098;7.582;2022-12-20T15:05:58;11.40;99.90
23591;DHT22;11973;52.098;7.582;2022-12-20T15:08:31;11.40;99.90
23591;DHT22;11973;52.098;7.582;2022-12-20T15:11:02;11.40;99.90
23591;DHT22;11973;52.098;7.582;2022-12-20T15:18:45;11.30;99.90
23591;DHT22;11973;52.098;7.582;2022-12-20T15:21:12;11.30;99.90
23591;DHT22;11973;52.098;7.582;2022-12-20T15:23:44;11.20;99.90
23591;DHT22;11973;52.098;7.582;2022-12-20T15:26:17;11.30;99.90
23591;DHT22;11973;52.098;7.582;2022-12-20T15:28:43;11.20;99.90
23591;DHT22;11973;52.098;7.582;2022-12-20T15:31:11;11.20;99.90
23591;DHT22;11973;52.098;7.582;2022-12-20T15:33:39;11.20;99.90
23591;DHT22;11973;52.098;7.582;2022-12-20T15:36:05;11.10;99.90
23591;DHT22;11973;52.098;7.582;2022-12-20T15:38:31;11.10;99.90
23591;DHT22;11973;52.098;7.582;2022-12-20T15:41:03;11.10;99.90
23591;DHT22;11973;52.098;7.582;2022-12-20T15:43:36;11.10;99.90
23591;DHT22;11973;52.098;7.582;2022-12-20T15:46:02;11.10;99.90
23591;DHT22;11973;52.098;7.582;2022-12-20T15:48:28;11.10;99.90
23591;DHT22;11973;52.098;7.582;2022-12-20T15:50:58;11.10;99.90
23591;DHT22;11973;52.098;7.582;2022-12-20T15:53:31;11.10;99.90
23591;DHT22;11973;52.098;7.582;2022-12-20T15:55:58;11.10;99.90
23591;DHT22;11973;52.098;7.582;2022-12-20T15:58:25;11.00;99.90
23591;DHT22;11973;52.098;7.582;2022-12-20T16:00:57;11.00;99.90
23591;DHT22;11973;52.098;7.582;2022-12-20T16:03:30;11.00;99.90
23591;DHT22;11973;52.098;7.582;2022-12-20T16:05:57;11.00;99.90
23591;DHT22;11973;52.098;7.582;2022-12-20T16:08:22;11.00;99.90
23591;DHT22;11973;52.098;7.582;2022-12-20T16:10:50;11.00;99.90
23591;DHT22;11973;52.098;7.582;2022-12-20T16:13:23;11.00;99.90
23591;DHT22;11973;52.098;7.582;2022-12-20T16:15:52;10.90;99.90
23591;DHT22;11973;52.098;7.582;2022-12-20T16:18:18;10.90;99.90
23591;DHT22;11973;52.098;7.582;2022-12-20T16:20:44;10.90;99.90
23591;DHT22;11973;52.098;7.582;2022-12-20T16:23:20;10.90;99.90
23591;DHT22;11973;52.098;7.582;2022-12-20T16:25:49;10.90;99.90
23591;DHT22;11973;52.098;7.582;2022-12-20T16:28:16;10.90;99.90
23591;DHT22;11973;52.098;7.582;2022-12-20T16:30:42;10.90;99.90
23591;DHT22;11973;52.098;7.582;2022-12-20T16:33:18;10.90;99.90
23591;DHT22;11973;52.098;7.582;2022-12-20T16:35:45;10.90;99.90
23591;DHT22;11973;52.098;7.582;2022-12-20T16:38:11;10.90;99.90
23591;DHT22;11973;52.098;7.582;2022-12-20T16:40:36;10.80;99.90
23591;DHT22;11973;52.098;7.582;2022-12-20T16:43:02;10.90;99.90
23591;DHT22;11973;52.098;7.582;2022-12-20T16:45:30;10.90;99.90
23591;DHT22;11973;52.098;7.582;2022-12-20T16:47:56;10.80;99.90
23591;DHT22;11973;52.098;7.582;2022-12-20T16:50:24;10.80;99.90
23591;DHT22;11973;52.098;7.582;2022-12-20T16:52:50;10.80;99.90
23591;DHT22;11973;52.098;7.582;2022-12-20T16:55:25;10.80;99.90
23591;DHT22;11973;52.098;7.582;2022-12-20T16:57:52;10.80;99.90
23591;DHT22;11973;52.098;7.582;2022-12-20T17:00:24;10.80;99.90
23591;DHT22;11973;52.098;7.582;2022-12-20T17:02:51;10.80;99.90
23591;DHT22;11973;52.098;7.582;2022-12-20T17:07:47;10.80;99.90
23591;DHT22;11973;52.098;7.582;2022-12-20T17:10:13;10.80;99.90
23591;DHT22;11973;52.098;7.582;2022-12-20T17:12:39;10.80;99.90
23591;DHT22;11973;52.098;7.582;2022-12-20T17:15:29;10.80;99.90
23591;DHT22;11973;52.098;7.582;2022-12-20T17:17:56;10.80;99.90
23591;DHT22;11973;52.098;7.582;2022-12-20T17:20:25;10.80;99.90
23591;DHT22;11973;52.098;7.582;2022-12-20T17:22:53;10.80;99.90
23591;DHT22;11973;52.098;7.582;2022-12-20T17:25:20;10.80;99.90
23591;DHT22;11973;52.098;7.582;2022-12-20T17:27:47;10.80;99.90
23591;DHT22;11973;52.098;7.582;2022-12-20T17:30:13;10.80;99.90
23591;DHT22;11973;52.098;7.582;2022-12-20T17:32:39;10.80;99.90
23591;DHT22;11973;52.098;7.582;2022-12-20T17:35:05;10.80;99.90
23591;DHT22;11973;52.098;7.582;2022-12-20T17:37:32;10.80;99.90
23591;DHT22;11973;52.098;7.582;2022-12-20T17:39:59;10.80;99.90
23591;DHT22;11973;52.098;7.582;2022-12-20T17:42:25;10.70;99.90
23591;DHT22;11973;52.098;7.582;2022-12-20T17:44:51;10.70;99.90
23591;DHT22;11973;52.098;7.582;2022-12-20T17:47:16;10.70;99.90
23591;DHT22;11973;52.098;7.582;2022-12-20T17:49:42;10.70;99.90
23591;DHT22;11973;52.098;7.582;2022-12-20T17:52:12;10.70;99.90
23591;DHT22;11973;52.098;7.582;2022-12-20T17:54:38;10.70;99.90
23591;DHT22;11973;52.098;7.582;2022-12-20T17:57:04;10.70;99.90
23591;DHT22;11973;52.098;7.582;2022-12-20T17:59:30;10.70;99.90
23591;DHT22;11973;52.098;7.582;2022-12-20T18:01:55;10.70;99.90
23591;DHT22;11973;52.098;7.582;2022-12-20T18:04:21;10.70;99.90
23591;DHT22;11973;52.098;7.582;2022-12-20T18:06:47;10.60;99.90
23591;DHT22;11973;52.098;7.582;2022-12-20T18:09:15;10.70;99.90
23591;DHT22;11973;52.098;7.582;2022-12-20T18:11:41;10.70;99.90
23591;DHT22;11973;52.098;7.582;2022-12-20T18:14:07;10.70;99.90
23591;DHT22;11973;52.098;7.582;2022-12-20T18:16:33;10.60;99.90
23591;DHT22;11973;52.098;7.582;2022-12-20T18:19:00;10.60;99.90
23591;DHT22;11973;52.098;7.582;2022-12-20T18:21:26;10.60;99.90
23591;DHT22;11973;52.098;7.582;2022-12-20T18:23:53;10.60;99.90
23591;DHT22;11973;52.098;7.582;2022-12-20T18:28:49;10.60;99.90
23591;DHT22;11973;52.098;7.582;2022-12-20T18:31:20;10.60;99.90
23591;DHT22;11973;52.098;7.582;2022-12-20T18:33:47;10.60;99.90